createdAt,value
2018-08-22T00:01:41.893Z,25.70
2018-08-22T00:04:07.764Z,25.69
2018-08-22T00:06:33.768Z,25.70
2018-08-22T00:08:59.764Z,25.70
2018-08-22T00:11:25.714Z,25.70
2018-08-22T00:13:51.689Z,25.69
2018-08-22T00:16:17.660Z,25.70
2018-08-22T00:18:43.638Z,25.70
2018-08-22T00:21:09.614Z,25.69
2018-08-22T00:23:35.589Z,25.70
2018-08-22T00:26:01.560Z,25.69
2018-08-22T00:28:27.536Z,25.69
2018-08-22T00:30:53.512Z,25.69
2018-08-22T00:33:19.488Z,25.69
2018-08-22T00:35:45.467Z,25.70
2018-08-22T00:38:11.449Z,25.70
2018-08-22T00:40:37.423Z,25.70
2018-08-22T00:43:03.437Z,25.69
2018-08-22T00:45:29.411Z,25.69
2018-08-22T00:47:55.386Z,25.69
2018-08-22T00:50:21.366Z,25.69
2018-08-22T00:52:47.351Z,25.69
2018-08-22T00:55:13.332Z,25.69
2018-08-22T00:57:39.367Z,25.69
2018-08-22T01:00:05.329Z,25.69
2018-08-22T01:02:31.301Z,25.68
2018-08-22T01:04:57.274Z,25.69
2018-08-22T01:07:23.257Z,25.69
2018-08-22T01:09:49.239Z,25.69
2018-08-22T01:12:15.210Z,25.69
2018-08-22T01:14:41.189Z,25.69
2018-08-22T01:17:07.173Z,25.69
2018-08-22T01:19:33.145Z,25.68
2018-08-22T01:21:59.133Z,25.69
2018-08-22T01:24:25.111Z,25.68
2018-08-22T01:26:51.092Z,25.68
2018-08-22T01:29:17.064Z,25.68
2018-08-22T01:31:43.045Z,25.68
2018-08-22T01:34:09.026Z,25.67
2018-08-22T01:36:34.996Z,25.68
2018-08-22T01:39:01.065Z,25.67
2018-08-22T01:41:27.055Z,25.68
2018-08-22T01:43:53.019Z,25.68
2018-08-22T01:46:19.002Z,25.68
2018-08-22T01:48:44.981Z,25.67
2018-08-22T01:51:10.960Z,25.67
2018-08-22T01:53:36.974Z,25.67
2018-08-22T01:56:02.953Z,25.68
2018-08-22T01:58:28.926Z,25.67
2018-08-22T02:00:54.908Z,25.67
2018-08-22T02:03:20.890Z,25.67
2018-08-22T02:05:46.870Z,25.67
2018-08-22T02:08:12.857Z,25.67
2018-08-22T02:10:38.832Z,25.67
2018-08-22T02:13:04.806Z,25.67
2018-08-22T02:15:30.780Z,25.66
2018-08-22T02:17:56.753Z,25.66
2018-08-22T02:20:22.739Z,25.67
2018-08-22T02:22:48.705Z,25.66
2018-08-22T02:25:14.766Z,25.67
2018-08-22T02:27:40.661Z,25.66
2018-08-22T02:30:06.637Z,25.66
2018-08-22T02:32:32.617Z,25.66
2018-08-22T02:34:58.590Z,25.66
2018-08-22T02:37:24.570Z,25.66
2018-08-22T02:39:50.542Z,25.66
2018-08-22T02:42:16.558Z,25.66
2018-08-22T02:44:42.540Z,25.66
2018-08-22T02:47:08.515Z,25.65
2018-08-22T02:49:34.497Z,25.65
2018-08-22T02:52:00.476Z,25.65
2018-08-22T02:54:26.450Z,25.65
2018-08-22T02:56:52.442Z,25.65
2018-08-22T02:59:18.429Z,25.64
2018-08-22T03:01:44.401Z,25.64
2018-08-22T03:04:10.379Z,25.65
2018-08-22T03:06:36.425Z,25.64
2018-08-22T03:09:02.360Z,25.64
2018-08-22T03:11:28.332Z,25.64
2018-08-22T03:13:54.309Z,25.64
2018-08-22T03:16:20.282Z,25.64
2018-08-22T03:18:46.261Z,25.64
2018-08-22T03:21:12.242Z,25.64
2018-08-22T03:23:38.224Z,25.64
2018-08-22T03:26:04.205Z,25.64
2018-08-22T03:28:30.178Z,25.63
2018-08-22T03:30:56.157Z,25.64
2018-08-22T03:33:22.129Z,25.64
2018-08-22T03:35:48.114Z,25.63
2018-08-22T03:38:14.089Z,25.64
2018-08-22T03:40:40.065Z,25.64
2018-08-22T03:43:06.044Z,25.64
2018-08-22T03:45:32.115Z,25.63
2018-08-22T03:47:58.157Z,25.63
2018-08-22T03:50:24.107Z,25.63
2018-08-22T03:52:50.076Z,25.63
2018-08-22T03:55:16.053Z,25.63
2018-08-22T03:57:42.026Z,25.63
2018-08-22T04:00:08.040Z,25.63
2018-08-22T04:02:34.025Z,25.63
2018-08-22T04:05:00.016Z,25.63
2018-08-22T04:07:26.000Z,25.62
2018-08-22T04:09:51.976Z,25.63
2018-08-22T04:12:17.970Z,25.63
2018-08-22T04:14:43.969Z,25.63
2018-08-22T04:17:09.953Z,25.63
2018-08-22T04:19:35.930Z,25.62
2018-08-22T04:22:01.906Z,25.62
2018-08-22T04:24:27.880Z,25.63
2018-08-22T04:26:53.856Z,25.63
2018-08-22T04:29:19.832Z,25.62
2018-08-22T04:31:45.816Z,25.63
2018-08-22T04:34:11.794Z,25.62
2018-08-22T04:36:37.768Z,25.62
2018-08-22T04:39:03.775Z,25.62
2018-08-22T04:41:29.754Z,25.62
2018-08-22T04:43:55.737Z,25.62
2018-08-22T04:46:21.716Z,25.62
2018-08-22T04:48:47.729Z,25.62
2018-08-22T04:51:13.710Z,25.62
2018-08-22T04:53:39.686Z,25.62
2018-08-22T04:56:05.684Z,25.62
2018-08-22T04:58:31.660Z,25.62
2018-08-22T05:00:57.637Z,25.61
2018-08-22T05:03:23.622Z,25.61
2018-08-22T05:05:49.626Z,25.61
2018-08-22T05:08:15.580Z,25.61
2018-08-22T05:10:41.559Z,25.61
2018-08-22T05:13:07.534Z,25.61
2018-08-22T05:15:33.509Z,25.61
2018-08-22T05:17:59.496Z,25.61
2018-08-22T05:20:25.469Z,25.61
2018-08-22T05:22:51.445Z,25.61
2018-08-22T05:25:17.420Z,25.61
2018-08-22T05:27:43.419Z,25.61
2018-08-22T05:30:09.434Z,25.60
2018-08-22T05:32:35.368Z,25.61
2018-08-22T05:35:01.346Z,25.61
2018-08-22T05:37:27.333Z,25.61
2018-08-22T05:39:53.370Z,25.61
2018-08-22T05:42:19.320Z,25.60
2018-08-22T05:44:45.334Z,25.61
2018-08-22T05:47:11.305Z,25.61
2018-08-22T05:49:37.280Z,25.60
2018-08-22T05:52:03.256Z,25.60
2018-08-22T05:54:29.247Z,25.61
2018-08-22T05:56:55.221Z,25.60
2018-08-22T05:59:21.202Z,25.60
2018-08-22T06:01:47.222Z,25.60
2018-08-22T06:04:13.198Z,25.60
2018-08-22T06:06:39.171Z,25.60
2018-08-22T06:09:05.163Z,25.60
2018-08-22T06:11:31.124Z,25.61
2018-08-22T06:13:57.101Z,25.60
2018-08-22T06:16:23.073Z,25.60
2018-08-22T06:18:49.058Z,25.61
2018-08-22T06:21:15.044Z,25.60
2018-08-22T06:23:41.021Z,25.61
2018-08-22T06:26:06.994Z,25.60
2018-08-22T06:28:33.016Z,25.60
2018-08-22T06:30:58.995Z,25.60
2018-08-22T06:33:24.978Z,25.60
2018-08-22T06:35:50.974Z,25.60
2018-08-22T06:38:16.996Z,25.60
2018-08-22T06:40:42.953Z,25.60
2018-08-22T06:43:08.934Z,25.60
2018-08-22T06:45:34.913Z,25.60
2018-08-22T06:48:00.894Z,25.60
2018-08-22T06:50:26.894Z,25.60
2018-08-22T06:52:52.897Z,25.60
2018-08-22T06:55:18.915Z,25.60
2018-08-22T06:57:44.885Z,25.60
2018-08-22T07:00:10.857Z,25.61
2018-08-22T07:02:36.882Z,25.60
2018-08-22T07:05:02.858Z,25.60
2018-08-22T07:07:28.828Z,25.60
2018-08-22T07:09:54.804Z,25.60
2018-08-22T07:12:20.788Z,25.60
2018-08-22T07:14:46.768Z,25.60
2018-08-22T07:17:12.750Z,25.60
2018-08-22T07:19:38.763Z,25.60
2018-08-22T07:22:04.736Z,25.60
2018-08-22T07:24:30.710Z,25.60
2018-08-22T07:26:56.688Z,25.60
2018-08-22T07:29:22.660Z,25.60
2018-08-22T07:31:48.639Z,25.60
2018-08-22T07:34:14.618Z,25.60
2018-08-22T07:36:40.611Z,25.60
2018-08-22T07:39:06.593Z,25.60
2018-08-22T07:41:32.574Z,25.60
2018-08-22T07:43:58.582Z,25.60
2018-08-22T07:46:24.534Z,25.60
2018-08-22T07:48:50.506Z,25.60
2018-08-22T07:51:16.517Z,25.59
2018-08-22T07:53:42.496Z,25.59
2018-08-22T07:56:08.481Z,25.59
2018-08-22T07:58:34.453Z,25.59
2018-08-22T08:01:00.432Z,25.60
2018-08-22T08:03:26.425Z,25.59
2018-08-22T08:05:52.411Z,25.60
2018-08-22T08:08:18.387Z,25.60
2018-08-22T08:10:44.366Z,25.60
2018-08-22T08:13:10.354Z,25.60
2018-08-22T08:15:36.329Z,25.59
2018-08-22T08:18:02.306Z,25.60
2018-08-22T08:20:28.281Z,25.60
2018-08-22T08:22:54.262Z,25.59
2018-08-22T08:25:20.241Z,25.60
2018-08-22T08:27:46.220Z,25.60
2018-08-22T08:30:12.195Z,25.60
2018-08-22T08:32:38.180Z,25.60
2018-08-22T08:35:04.157Z,25.60
2018-08-22T08:37:30.143Z,25.60
2018-08-22T08:39:56.117Z,25.60
2018-08-22T08:42:22.094Z,25.60
2018-08-22T08:44:48.068Z,25.60
2018-08-22T08:47:14.049Z,25.60
2018-08-22T08:49:40.098Z,25.60
2018-08-22T08:52:06.010Z,25.60
2018-08-22T08:54:31.987Z,25.60
2018-08-22T08:56:57.965Z,25.60
2018-08-22T08:59:23.945Z,25.60
2018-08-22T09:01:49.916Z,25.61
2018-08-22T09:04:15.948Z,25.61
2018-08-22T09:06:41.881Z,25.60
2018-08-22T09:09:07.858Z,25.61
2018-08-22T09:11:33.834Z,25.61
2018-08-22T09:13:59.850Z,25.61
2018-08-22T09:16:25.838Z,25.61
2018-08-22T09:18:51.862Z,25.61
2018-08-22T09:21:17.857Z,25.62
2018-08-22T09:23:43.784Z,25.62
2018-08-22T09:26:09.764Z,25.62
2018-08-22T09:28:35.768Z,25.62
2018-08-22T09:31:01.745Z,25.62
2018-08-22T09:33:27.717Z,25.63
2018-08-22T09:35:53.705Z,25.63
2018-08-22T09:38:19.684Z,25.63
2018-08-22T09:40:45.702Z,25.62
2018-08-22T09:43:11.691Z,25.63
2018-08-22T09:45:37.612Z,25.63
2018-08-22T09:48:03.613Z,25.63
2018-08-22T09:50:29.585Z,25.63
2018-08-22T09:52:55.605Z,25.63
2018-08-22T09:55:21.591Z,25.63
2018-08-22T09:57:47.567Z,25.63
2018-08-22T10:00:13.628Z,25.64
2018-08-22T10:02:39.574Z,25.64
2018-08-22T10:05:05.561Z,25.64
2018-08-22T10:07:31.603Z,25.63
2018-08-22T10:09:57.578Z,25.63
2018-08-22T10:12:23.526Z,25.64
2018-08-22T10:14:49.470Z,25.64
2018-08-22T10:17:15.508Z,25.64
2018-08-22T10:19:41.535Z,25.65
2018-08-22T10:22:07.473Z,25.65
2018-08-22T10:24:33.472Z,25.65
2018-08-22T10:26:59.464Z,25.65
2018-08-22T10:29:25.425Z,25.65
2018-08-22T10:31:51.410Z,25.65
2018-08-22T10:34:17.401Z,25.65
2018-08-22T10:36:43.401Z,25.64
2018-08-22T10:39:09.376Z,25.64
2018-08-22T10:41:35.356Z,25.65
2018-08-22T10:44:01.337Z,25.65
2018-08-22T10:46:27.336Z,25.66
2018-08-22T10:48:53.334Z,25.66
2018-08-22T10:51:19.292Z,25.67
2018-08-22T10:53:45.270Z,25.66
2018-08-22T10:56:11.257Z,25.66
2018-08-22T10:58:37.235Z,25.66
2018-08-22T11:01:03.211Z,25.66
2018-08-22T11:03:29.190Z,25.67
2018-08-22T11:05:55.171Z,25.66
2018-08-22T11:08:21.145Z,25.67
2018-08-22T11:10:47.127Z,25.67
2018-08-22T11:13:13.106Z,25.67
2018-08-22T11:15:39.138Z,25.67
2018-08-22T11:18:05.094Z,25.67
2018-08-22T11:20:31.082Z,25.68
2018-08-22T11:22:57.064Z,25.68
2018-08-22T11:25:23.091Z,25.68
2018-08-22T11:27:49.066Z,25.68
2018-08-22T11:30:15.036Z,25.68
2018-08-22T11:32:41.033Z,25.68
2018-08-22T11:35:07.012Z,25.68
2018-08-22T11:37:32.994Z,25.68
2018-08-22T11:39:58.968Z,25.68
2018-08-22T11:42:25.000Z,25.69
2018-08-22T11:44:50.992Z,25.68
2018-08-22T11:47:16.975Z,25.68
2018-08-22T11:49:42.946Z,25.69
2018-08-22T11:52:08.925Z,25.69
2018-08-22T11:54:34.924Z,25.69
2018-08-22T11:57:00.928Z,25.69
2018-08-22T11:59:26.875Z,25.69
2018-08-22T12:01:52.946Z,25.69
2018-08-22T12:04:18.878Z,25.69
2018-08-22T12:06:44.861Z,25.69
2018-08-22T12:09:10.844Z,25.68
2018-08-22T12:11:36.875Z,25.69
2018-08-22T12:14:02.825Z,25.69
2018-08-22T12:16:29.223Z,25.69
2018-08-22T12:18:55.171Z,25.69
2018-08-22T12:21:21.146Z,25.69
2018-08-22T12:23:47.120Z,25.69
2018-08-22T12:26:13.099Z,25.70
2018-08-22T12:28:39.078Z,25.70
2018-08-22T12:31:05.144Z,25.70
2018-08-22T12:33:31.048Z,25.70
2018-08-22T12:35:57.025Z,25.70
2018-08-22T12:38:23.005Z,25.70
2018-08-22T12:40:49.024Z,25.70
2018-08-22T12:43:15.008Z,25.70
2018-08-22T12:45:40.993Z,25.70
2018-08-22T12:48:06.970Z,25.69
2018-08-22T12:50:32.959Z,25.70
2018-08-22T12:52:58.931Z,25.69
2018-08-22T12:55:24.927Z,25.69
2018-08-22T12:57:50.900Z,25.70
2018-08-22T13:00:16.875Z,25.70
2018-08-22T13:02:42.853Z,25.70
2018-08-22T13:05:08.860Z,25.70
2018-08-22T13:07:34.857Z,25.70
2018-08-22T13:10:00.861Z,25.70
2018-08-22T13:12:26.875Z,25.70
2018-08-22T13:14:52.849Z,25.69
2018-08-22T13:17:18.829Z,25.69
2018-08-22T13:19:44.851Z,25.70
2018-08-22T13:22:10.852Z,25.69
2018-08-22T13:24:36.861Z,25.69
2018-08-22T13:27:02.847Z,25.69
2018-08-22T13:29:28.816Z,25.69
2018-08-22T13:31:54.813Z,25.69
2018-08-22T13:34:20.789Z,25.69
2018-08-22T13:36:46.772Z,25.70
2018-08-22T13:39:12.792Z,25.70
2018-08-22T13:41:38.741Z,25.69
2018-08-22T13:44:04.737Z,25.69
2018-08-22T13:46:30.726Z,25.68
2018-08-22T13:48:56.706Z,25.69
2018-08-22T13:51:22.682Z,25.69
2018-08-22T13:53:48.712Z,25.69
2018-08-22T13:56:14.690Z,25.69
2018-08-22T13:58:40.659Z,25.69
2018-08-22T14:01:06.659Z,25.68
2018-08-22T14:03:32.647Z,25.69
2018-08-22T14:05:58.645Z,25.68
2018-08-22T14:08:24.628Z,25.68
2018-08-22T14:10:50.596Z,25.69
2018-08-22T14:13:16.598Z,25.69
2018-08-22T14:15:42.596Z,25.69
2018-08-22T14:18:08.575Z,25.69
2018-08-22T14:20:34.552Z,25.69
2018-08-22T14:23:00.526Z,25.69
2018-08-22T14:25:26.520Z,25.69
2018-08-22T14:27:52.504Z,25.69
2018-08-22T14:30:18.550Z,25.69
2018-08-22T14:32:44.514Z,25.68
2018-08-22T14:35:10.620Z,25.69
2018-08-22T14:37:36.616Z,25.69
2018-08-22T14:40:02.658Z,25.70
2018-08-22T14:42:28.602Z,25.69
2018-08-22T14:44:54.689Z,25.69
2018-08-22T14:47:20.617Z,25.69
2018-08-22T14:49:46.610Z,25.69
2018-08-22T14:52:12.581Z,25.69
2018-08-22T14:54:38.579Z,25.68
2018-08-22T14:57:04.561Z,25.68
2018-08-22T14:59:30.536Z,25.68
2018-08-22T15:01:56.509Z,25.68
2018-08-22T15:04:22.539Z,25.68
2018-08-22T15:06:48.533Z,25.67
2018-08-22T15:09:14.541Z,25.67
2018-08-22T15:11:40.484Z,25.67
2018-08-22T15:14:06.477Z,25.67
2018-08-22T15:16:32.474Z,25.68
2018-08-22T15:18:58.438Z,25.69
2018-08-22T15:21:24.432Z,25.70
2018-08-22T15:23:50.412Z,25.71
2018-08-22T15:26:16.393Z,25.72
2018-08-22T15:28:42.384Z,25.73
2018-08-22T15:31:08.366Z,25.74
2018-08-22T15:33:34.353Z,25.75
2018-08-22T15:36:00.352Z,25.76
2018-08-22T15:38:26.348Z,25.77
2018-08-22T15:40:52.404Z,25.77
2018-08-22T15:43:18.322Z,25.79
2018-08-22T15:45:44.315Z,25.79
2018-08-22T15:48:10.313Z,25.80
2018-08-22T15:50:36.302Z,25.80
2018-08-22T15:53:02.322Z,25.80
2018-08-22T15:55:28.283Z,25.81
2018-08-22T15:57:54.267Z,25.83
2018-08-22T16:00:20.305Z,25.81
2018-08-22T16:02:46.285Z,25.83
2018-08-22T16:05:12.276Z,25.84
2018-08-22T16:07:38.282Z,25.85
2018-08-22T16:10:04.283Z,25.85
2018-08-22T16:12:30.261Z,25.85
2018-08-22T16:14:56.274Z,25.84
2018-08-22T16:17:22.273Z,25.84
2018-08-22T16:19:48.263Z,25.85
2018-08-22T16:22:14.261Z,25.86
2018-08-22T16:24:40.238Z,25.86
2018-08-22T16:27:06.225Z,25.87
2018-08-22T16:29:32.202Z,25.87
2018-08-22T16:31:58.184Z,25.87
2018-08-22T16:34:24.177Z,25.86
2018-08-22T16:36:50.154Z,25.87
2018-08-22T16:39:16.140Z,25.86
2018-08-22T16:41:42.114Z,25.86
2018-08-22T16:44:08.164Z,25.86
2018-08-22T16:46:34.160Z,25.86
2018-08-22T16:49:00.152Z,25.85
2018-08-22T16:51:26.131Z,25.84
2018-08-22T16:53:52.100Z,25.83
2018-08-22T16:56:18.096Z,25.83
2018-08-22T16:58:44.083Z,25.83
2018-08-22T17:01:10.107Z,25.82
2018-08-22T17:03:36.081Z,25.82
2018-08-22T17:06:02.110Z,25.81
2018-08-22T17:08:28.119Z,25.81
2018-08-22T17:10:54.066Z,25.80
2018-08-22T17:13:20.044Z,25.80
2018-08-22T17:15:46.039Z,25.80
2018-08-22T17:18:12.018Z,25.80
2018-08-22T17:20:38.016Z,25.78
2018-08-22T17:23:04.011Z,25.79
2018-08-22T17:25:30.001Z,25.79
2018-08-22T17:27:56.000Z,25.77
2018-08-22T17:30:22.017Z,25.77
2018-08-22T17:32:47.953Z,25.76
2018-08-22T17:35:13.934Z,25.76
2018-08-22T17:37:39.920Z,25.77
2018-08-22T17:40:05.923Z,25.76
2018-08-22T17:42:31.933Z,25.74
2018-08-22T17:44:57.951Z,25.76
2018-08-22T17:47:23.897Z,25.75
2018-08-22T17:49:49.872Z,25.75
2018-08-22T17:52:15.848Z,25.74
2018-08-22T17:54:41.846Z,25.75
2018-08-22T17:57:07.836Z,25.74
2018-08-22T17:59:35.068Z,25.74
2018-08-22T18:02:01.198Z,25.74
2018-08-22T18:04:27.197Z,25.73
2018-08-22T18:06:53.196Z,25.73
2018-08-22T18:09:19.181Z,25.73
2018-08-22T18:11:45.165Z,25.72
2018-08-22T18:14:11.137Z,25.73
2018-08-22T18:16:37.109Z,25.73
2018-08-22T18:19:03.091Z,25.72
2018-08-22T18:21:29.064Z,25.72
2018-08-22T18:23:55.076Z,25.72
2018-08-22T18:26:21.129Z,25.72
2018-08-22T18:28:47.100Z,25.72
2018-08-22T18:31:13.096Z,25.72
2018-08-22T18:33:39.069Z,25.71
2018-08-22T18:36:05.055Z,25.72
2018-08-22T18:38:31.041Z,25.72
2018-08-22T18:40:57.016Z,25.71
2018-08-22T18:43:22.994Z,25.71
2018-08-22T18:45:48.973Z,25.70
2018-08-22T18:48:14.967Z,25.70
2018-08-22T18:50:40.960Z,25.70
2018-08-22T18:53:06.942Z,25.70
2018-08-22T18:55:32.944Z,25.70
2018-08-22T18:57:58.924Z,25.70
2018-08-22T19:00:24.918Z,25.69
2018-08-22T19:02:50.878Z,25.69
2018-08-22T19:05:16.852Z,25.69
2018-08-22T19:07:42.831Z,25.69
2018-08-22T19:10:08.809Z,25.69
2018-08-22T19:12:34.816Z,25.68
2018-08-22T19:15:00.814Z,25.69
2018-08-22T19:17:26.862Z,25.69
2018-08-22T19:19:52.800Z,25.69
2018-08-22T19:22:18.785Z,25.69
2018-08-22T19:24:44.776Z,25.69
2018-08-22T19:27:10.778Z,25.68
2018-08-22T19:29:36.754Z,25.68
2018-08-22T19:32:02.732Z,25.68
2018-08-22T19:34:28.711Z,25.68
2018-08-22T19:36:54.705Z,25.69
2018-08-22T19:39:20.726Z,25.68
2018-08-22T19:41:46.687Z,25.68
2018-08-22T19:44:12.664Z,25.69
2018-08-22T19:46:38.667Z,25.68
2018-08-22T19:49:04.748Z,25.68
2018-08-22T19:51:30.649Z,25.68
2018-08-22T19:53:56.684Z,25.68
2018-08-22T19:56:22.684Z,25.68
2018-08-22T19:58:48.594Z,25.68
2018-08-22T20:01:14.573Z,25.67
2018-08-22T20:03:40.605Z,25.68
2018-08-22T20:06:06.600Z,25.68
2018-08-22T20:08:32.596Z,25.68
2018-08-22T20:10:58.576Z,25.68
2018-08-22T20:13:24.556Z,25.67
2018-08-22T20:15:50.557Z,25.67
2018-08-22T20:18:16.538Z,25.67
2018-08-22T20:20:42.536Z,25.67
2018-08-22T20:23:08.529Z,25.67
2018-08-22T20:25:34.520Z,25.66
2018-08-22T20:28:00.497Z,25.67
2018-08-22T20:30:26.547Z,25.67
2018-08-22T20:32:52.478Z,25.66
2018-08-22T20:35:18.472Z,25.66
2018-08-22T20:37:44.476Z,25.67
2018-08-22T20:40:10.506Z,25.66
2018-08-22T20:42:36.586Z,25.66
2018-08-22T20:45:02.515Z,25.66
2018-08-22T20:47:28.509Z,25.67
2018-08-22T20:49:54.476Z,25.66
2018-08-22T20:52:20.453Z,25.67
2018-08-22T20:54:46.434Z,25.66
2018-08-22T20:57:12.414Z,25.67
2018-08-22T20:59:38.398Z,25.67
2018-08-22T21:02:04.427Z,25.67
2018-08-22T21:04:30.405Z,25.67
2018-08-22T21:06:56.390Z,25.66
2018-08-22T21:09:22.386Z,25.66
2018-08-22T21:11:48.373Z,25.66
2018-08-22T21:14:14.361Z,25.66
2018-08-22T21:16:40.337Z,25.66
2018-08-22T21:19:06.308Z,25.66
2018-08-22T21:21:32.288Z,25.67
2018-08-22T21:23:58.264Z,25.66
2018-08-22T21:26:24.251Z,25.65
2018-08-22T21:28:50.224Z,25.66
2018-08-22T21:31:16.211Z,25.66
2018-08-22T21:33:42.200Z,25.65
2018-08-22T21:36:08.181Z,25.64
2018-08-22T21:38:34.154Z,25.65
2018-08-22T21:41:00.135Z,25.66
2018-08-22T21:43:26.114Z,25.66
2018-08-22T21:45:52.115Z,25.65
2018-08-22T21:48:18.100Z,25.65
2018-08-22T21:50:44.074Z,25.65
2018-08-22T21:53:10.054Z,25.66
2018-08-22T21:55:36.039Z,25.65
2018-08-22T21:58:02.031Z,25.66
2018-08-22T22:00:28.005Z,25.65
2018-08-22T22:02:54.018Z,25.65
2018-08-22T22:05:19.994Z,25.65
2018-08-22T22:07:45.973Z,25.65
2018-08-22T22:10:11.955Z,25.65
2018-08-22T22:12:37.945Z,25.64
2018-08-22T22:15:03.916Z,25.65
2018-08-22T22:17:29.898Z,25.65
2018-08-22T22:19:55.938Z,25.64
2018-08-22T22:22:21.915Z,25.65
2018-08-22T22:24:47.885Z,25.65
2018-08-22T22:27:13.878Z,25.65
2018-08-22T22:29:39.850Z,25.65
2018-08-22T22:32:05.866Z,25.65
2018-08-22T22:34:31.814Z,25.64
2018-08-22T22:36:57.796Z,25.65
2018-08-22T22:39:23.769Z,25.65
2018-08-22T22:41:49.790Z,25.64
2018-08-22T22:44:15.765Z,25.65
2018-08-22T22:46:41.745Z,25.65
2018-08-22T22:49:07.771Z,25.64
2018-08-22T22:51:33.750Z,25.64
2018-08-22T22:53:59.727Z,25.64
2018-08-22T22:56:25.762Z,25.65
2018-08-22T22:58:51.712Z,25.65
2018-08-22T23:01:17.704Z,25.65
2018-08-22T23:03:43.681Z,25.65
2018-08-22T23:06:09.654Z,25.65
2018-08-22T23:08:35.630Z,25.65
2018-08-22T23:11:01.651Z,25.65
2018-08-22T23:13:27.631Z,25.64
2018-08-22T23:15:53.599Z,25.64
2018-08-22T23:18:19.595Z,25.64
2018-08-22T23:20:45.557Z,25.65
2018-08-22T23:23:11.578Z,25.64
2018-08-22T23:25:37.596Z,25.64
2018-08-22T23:28:03.582Z,25.64
2018-08-22T23:30:29.552Z,25.65
2018-08-22T23:32:55.533Z,25.64
2018-08-22T23:35:21.514Z,25.65
2018-08-22T23:37:47.489Z,25.65
2018-08-22T23:40:13.472Z,25.64
2018-08-22T23:42:39.454Z,25.64
2018-08-22T23:45:05.443Z,25.64
2018-08-22T23:47:31.430Z,25.64
2018-08-22T23:49:57.404Z,25.65
2018-08-22T23:52:23.380Z,25.64
2018-08-22T23:54:49.365Z,25.64
2018-08-22T23:57:15.364Z,25.64
2018-08-22T23:59:41.354Z,25.64
